CTY weather

Cross City Airport
Cross City, Florida, United States

Public forecast

Using degrees Fahrenheit for public forecast. Weather courtesy of forecast.io.

METAR (pilot weather report)

Retrieved 2019/04/25 08:15 UTC (0 seconds ago):

KCTY 250815Z AUTO 00000KT 10SM CLR 14/14 A2996 RMK AO2 T01440138

TAF (pilot weather forecast)

Closest forecast is Gainesville Regional Airport, 43.6 nm (80.7 km) E. Retrieved 2019/04/25 06:36 UTC (2 hours ago):

TAF KGNV 250534Z 2506/2606 VRB02KT P6SM BKN250 FM251500 18005KT P6SM FEW060 BKN250 FM252000 20007KT P6SM SCT060 BKN150 BKN250 FM260200 20005KT P6SM FEW060 BKN200